createdAt,value
2023-04-02T00:00:36.677Z,23.52
2023-04-02T00:03:27.837Z,21.10
2023-04-02T00:06:34.512Z,25.13
2023-04-02T00:09:33.005Z,22.30
2023-04-02T00:12:57.862Z,26.30
2023-04-02T00:18:59.369Z,22.27
2023-04-02T00:22:08.096Z,23.10
2023-04-02T00:25:02.693Z,25.55
2023-04-02T00:31:21.972Z,25.80
2023-04-02T00:34:03.707Z,26.42
2023-04-02T00:36:48.413Z,28.67
2023-04-02T00:39:32.517Z,24.80
2023-04-02T00:42:23.776Z,28.17
2023-04-02T00:45:39.136Z,32.13
2023-04-02T00:48:57.126Z,34.35
2023-04-02T00:51:29.608Z,31.10
2023-04-02T00:54:02.836Z,41.90
2023-04-02T00:56:37.601Z,42.72
2023-04-02T00:59:22.757Z,36.43
2023-04-02T01:01:55.918Z,36.58
2023-04-02T01:04:35.127Z,38.10
2023-04-02T01:07:10.103Z,30.20
2023-04-02T01:09:54.597Z,39.40
2023-04-02T01:12:41.560Z,31.65
2023-04-02T01:15:19.550Z,22.60
2023-04-02T01:18:10.116Z,20.05
2023-04-02T01:21:06.648Z,17.00
2023-04-02T01:23:50.030Z,15.63
2023-04-02T01:26:34.497Z,11.48
2023-04-02T01:29:10.737Z,11.65
2023-04-02T01:31:40.957Z,11.13
2023-04-02T01:34:13.989Z,12.32
2023-04-02T01:36:51.713Z,9.88
2023-04-02T01:39:32.218Z,10.40
2023-04-02T01:42:20.569Z,11.52
2023-04-02T01:44:52.672Z,11.25
2023-04-02T01:47:25.095Z,16.15
2023-04-02T01:49:58.781Z,11.30
2023-04-02T01:52:36.967Z,14.55
2023-04-02T01:55:06.945Z,15.93
2023-04-02T01:57:36.395Z,14.07
2023-04-02T02:00:13.902Z,16.92
2023-04-02T02:02:44.369Z,14.68
2023-04-02T02:05:17.770Z,13.20
2023-04-02T02:07:47.410Z,13.95
2023-04-02T02:10:18.727Z,13.48
2023-04-02T02:12:49.447Z,11.95
2023-04-02T02:15:22.190Z,13.15
2023-04-02T02:17:52.004Z,12.23
2023-04-02T02:20:21.535Z,10.40
2023-04-02T02:22:53.182Z,13.68
2023-04-02T02:25:24.887Z,11.00
2023-04-02T02:28:07.671Z,10.13
2023-04-02T02:30:44.104Z,10.93
2023-04-02T02:33:19.255Z,12.38
2023-04-02T02:35:54.582Z,13.93
2023-04-02T02:38:40.891Z,14.65
2023-04-02T02:41:17.390Z,15.35
2023-04-02T02:43:59.556Z,11.18
2023-04-02T02:46:31.883Z,9.95
2023-04-02T02:49:04.834Z,12.07
2023-04-02T02:51:44.015Z,10.57
2023-04-02T02:54:13.993Z,8.77
2023-04-02T02:56:47.847Z,6.82
2023-04-02T02:59:18.937Z,7.60
2023-04-02T03:01:49.888Z,6.97
2023-04-02T03:04:23.802Z,4.60
2023-04-02T03:06:55.237Z,4.10
2023-04-02T03:09:36.661Z,4.68
2023-04-02T03:12:15.599Z,5.45
2023-04-02T03:14:50.881Z,5.18
2023-04-02T03:17:26.104Z,4.13
2023-04-02T03:20:01.983Z,6.70
2023-04-02T03:22:37.797Z,6.95
2023-04-02T03:25:19.191Z,8.23
2023-04-02T03:27:52.438Z,5.00
2023-04-02T03:30:30.975Z,5.85
2023-04-02T03:33:06.921Z,6.93
2023-04-02T03:38:14.848Z,3.65
2023-04-02T03:40:47.534Z,7.55
2023-04-02T03:43:23.729Z,7.75
2023-04-02T03:45:57.396Z,4.93
2023-04-02T03:48:32.057Z,5.85
2023-04-02T03:51:08.082Z,5.07
2023-04-02T03:53:37.351Z,5.07
2023-04-02T03:56:08.304Z,5.07
2023-04-02T03:58:43.154Z,5.60
2023-04-02T04:01:26.183Z,5.05
2023-04-02T04:03:59.459Z,5.22
2023-04-02T04:06:31.563Z,5.57
2023-04-02T04:09:07.803Z,5.43
2023-04-02T04:11:39.378Z,4.18
2023-04-02T04:14:11.642Z,4.90
2023-04-02T04:16:47.950Z,4.90
2023-04-02T04:19:25.256Z,5.40
2023-04-02T04:21:58.393Z,5.30
2023-04-02T04:24:29.541Z,5.82
2023-04-02T04:27:04.414Z,6.00
2023-04-02T04:29:41.062Z,6.40
2023-04-02T04:32:21.448Z,4.85
2023-04-02T04:34:54.134Z,6.30
2023-04-02T04:37:33.929Z,7.30
2023-04-02T04:40:13.175Z,6.32
2023-04-02T04:42:45.937Z,6.35
2023-04-02T04:45:33.695Z,5.22
2023-04-02T04:48:07.350Z,6.90
2023-04-02T04:50:48.362Z,6.07
2023-04-02T04:53:19.573Z,6.10
2023-04-02T04:55:54.295Z,8.35
2023-04-02T04:58:27.728Z,6.65
2023-04-02T05:01:04.266Z,7.45
2023-04-02T05:03:38.849Z,7.63
2023-04-02T05:06:17.923Z,7.15
2023-04-02T05:08:51.025Z,5.43
2023-04-02T05:11:28.553Z,5.88
2023-04-02T05:14:03.135Z,5.50
2023-04-02T05:16:38.729Z,6.40
2023-04-02T05:19:13.081Z,5.10
2023-04-02T05:21:49.206Z,4.95
2023-04-02T05:24:43.408Z,4.28
2023-04-02T05:27:23.145Z,4.80
2023-04-02T05:29:57.560Z,5.00
2023-04-02T05:32:30.584Z,4.35
2023-04-02T05:35:00.329Z,3.95
2023-04-02T05:37:32.458Z,3.17
2023-04-02T05:40:14.005Z,3.67
2023-04-02T05:42:49.550Z,3.70
2023-04-02T05:45:27.730Z,3.80
2023-04-02T05:48:02.177Z,4.50
2023-04-02T05:50:37.795Z,6.45
2023-04-02T05:53:12.945Z,5.50
2023-04-02T05:55:50.695Z,6.13
2023-04-02T06:01:12.460Z,5.90
2023-04-02T06:03:49.592Z,6.30
2023-04-02T06:06:29.138Z,4.85
2023-04-02T06:09:06.050Z,5.32
2023-04-02T06:11:42.878Z,6.32
2023-04-02T06:14:14.175Z,6.40
